NCAR-RAP Real-Time Weather Data

Output produced by METARs form (10 April 2020  07:06 UTC)
found at http://weather.rap.ucar.edu/surface/
 
KBFF 100653Z AUTO 12010KT 10SM CLR 00/M08 A3008 RMK AO2 SLP188 T00001083 401501044
KBFF 100553Z AUTO 11011KT 10SM CLR 01/M08 A3009 RMK AO2 SLP189 T00111083 10139 20011 58002
KBFF 100453Z AUTO 10009KT 10SM CLR 02/M08 A3009 RMK AO2 SLP190 T00221083
KBFF 100353Z AUTO 10009KT 10SM CLR 04/M07 A3010 RMK AO2 SLP195 T00391072
KBFF 100253Z AUTO 07010KT 10SM CLR 05/M07 A3010 RMK AO2 SLP199 T00501067 53007
KBFF 100153Z AUTO 05008KT 10SM CLR 07/M08 A3008 RMK AO2 SLP196 T00671083
KBFF 100053Z AUTO 02007KT 10SM CLR 12/M07 A3007 RMK AO2 SLP191 T01171072
KBFF 092353Z AUTO 06007KT 030V090 10SM CLR 13/M08 A3008 RMK AO2 SLP190 T01331078 10150 20122 56014
KBFF 092253Z AUTO 34007KT 10SM CLR 14/M08 A3008 RMK AO2 SLP193 T01391078
KBFF 092153Z AUTO 01011G14KT 10SM CLR 14/M08 A3010 RMK AO2 SLP195 T01441078
KBFF 092053Z AUTO 35008G20KT 300V010 10SM CLR 14/M08 A3012 RMK AO2 SLP202 T01391078 56020
KBFF 091953Z AUTO 35008G19KT 10SM CLR 13/M08 A3014 RMK AO2 SLP210 T01331078
KBFF 091853Z AUTO 32011G17KT 10SM CLR 13/M09 A3016 RMK AO2 SLP215 T01281089
KBFF 091753Z AUTO 31011G22KT 10SM CLR 13/M08 A3019 RMK AO2 SLP220 T01281083 10128 21039 58008
KBFF 091653Z AUTO 31014G18KT 10SM CLR 11/M08 A3021 RMK AO2 SLP226 T01061078
KBFF 091553Z AUTO 29013KT 10SM CLR 09/M05 A3022 RMK AO2 SLP232 T00891050
KBFF 091453Z AUTO 30009KT 10SM CLR 05/M03 A3021 RMK AO2 SLP237 T00501033 52012
KBFF 091353Z AUTO 30008KT 10SM CLR 01/M04 A3020 RMK AO2 SLP233 T00061039
KBFF 091253Z AUTO 29005KT 10SM CLR M03/M06 A3019 RMK AO2 SLP228 T10281056
KBFF 091153Z AUTO 31007KT 10SM CLR M04/M06 A3017 RMK AO2 SLP222 T10391061 10033 21044 53002
KBFF 091053Z AUTO 31004KT 10SM CLR M04/M07 A3016 RMK AO2 SLP219 T10441072
KBFF 090953Z AUTO 36005KT 10SM CLR M03/M06 A3016 RMK AO2 SLP214 T10281061